sensor_id;sensor_type;location;lat;lon;timestamp;temperature;humidity
45735;DHT22;31446;49.632;8.328;2023-04-12T00:01:02;10.20;99.90
45735;DHT22;31446;49.632;8.328;2023-04-12T00:16:09;9.90;99.90
45735;DHT22;31446;49.632;8.328;2023-04-12T00:31:17;9.60;99.90
45735;DHT22;31446;49.632;8.328;2023-04-12T00:46:23;9.40;99.90
45735;DHT22;31446;49.632;8.328;2023-04-12T01:01:31;9.30;99.90
45735;DHT22;31446;49.632;8.328;2023-04-12T01:16:40;9.20;99.90
45735;DHT22;31446;49.632;8.328;2023-04-12T01:31:53;9.10;99.90
45735;DHT22;31446;49.632;8.328;2023-04-12T01:46:59;9.00;99.90
45735;DHT22;31446;49.632;8.328;2023-04-12T02:02:06;9.00;99.90
45735;DHT22;31446;49.632;8.328;2023-04-12T02:17:12;8.90;99.90
45735;DHT22;31446;49.632;8.328;2023-04-12T02:32:19;8.80;99.90
45735;DHT22;31446;49.632;8.328;2023-04-12T02:47:26;8.60;99.90
45735;DHT22;31446;49.632;8.328;2023-04-12T03:02:33;8.60;99.90
45735;DHT22;31446;49.632;8.328;2023-04-12T03:17:39;8.50;99.90
45735;DHT22;31446;49.632;8.328;2023-04-12T03:32:45;8.50;99.90
45735;DHT22;31446;49.632;8.328;2023-04-12T03:47:51;8.40;99.90
45735;DHT22;31446;49.632;8.328;2023-04-12T04:02:57;8.50;99.90
45735;DHT22;31446;49.632;8.328;2023-04-12T04:18:05;8.50;99.90
45735;DHT22;31446;49.632;8.328;2023-04-12T04:33:11;8.60;99.90
45735;DHT22;31446;49.632;8.328;2023-04-12T04:48:18;8.50;99.90
45735;DHT22;31446;49.632;8.328;2023-04-12T05:03:24;8.40;99.90
45735;DHT22;31446;49.632;8.328;2023-04-12T05:18:31;8.50;99.90
45735;DHT22;31446;49.632;8.328;2023-04-12T05:33:38;8.40;99.90
45735;DHT22;31446;49.632;8.328;2023-04-12T05:48:55;8.80;99.90
45735;DHT22;31446;49.632;8.328;2023-04-12T07:07:28;9.40;99.90
45735;DHT22;31446;49.632;8.328;2023-04-12T07:22:39;9.50;99.90
45735;DHT22;31446;49.632;8.328;2023-04-12T07:37:59;9.90;99.90
45735;DHT22;31446;49.632;8.328;2023-04-12T07:53:22;10.00;99.90
45735;DHT22;31446;49.632;8.328;2023-04-12T08:08:28;9.90;99.90
45735;DHT22;31446;49.632;8.328;2023-04-12T08:23:35;10.00;99.90
45735;DHT22;31446;49.632;8.328;2023-04-12T08:38:41;10.10;99.90
45735;DHT22;31446;49.632;8.328;2023-04-12T08:53:47;10.50;99.90
45735;DHT22;31446;49.632;8.328;2023-04-12T09:08:56;10.80;99.90
45735;DHT22;31446;49.632;8.328;2023-04-12T09:24:07;11.00;99.90
45735;DHT22;31446;49.632;8.328;2023-04-12T09:39:15;11.60;99.90
45735;DHT22;31446;49.632;8.328;2023-04-12T09:54:26;11.70;99.90
45735;DHT22;31446;49.632;8.328;2023-04-12T10:09:32;11.50;99.90
45735;DHT22;31446;49.632;8.328;2023-04-12T10:24:39;11.80;99.90
45735;DHT22;31446;49.632;8.328;2023-04-12T10:39:51;11.90;99.90
45735;DHT22;31446;49.632;8.328;2023-04-12T10:55:26;13.30;99.90
45735;DHT22;31446;49.632;8.328;2023-04-12T11:10:37;12.60;99.90
45735;DHT22;31446;49.632;8.328;2023-04-12T11:25:49;12.20;99.90
45735;DHT22;31446;49.632;8.328;2023-04-12T11:40:55;12.40;99.90
45735;DHT22;31446;49.632;8.328;2023-04-12T11:56:01;13.10;99.90
45735;DHT22;31446;49.632;8.328;2023-04-12T12:11:08;12.30;99.90
45735;DHT22;31446;49.632;8.328;2023-04-12T12:26:21;12.80;99.90
45735;DHT22;31446;49.632;8.328;2023-04-12T12:41:27;13.00;99.90
45735;DHT22;31446;49.632;8.328;2023-04-12T12:56:33;13.00;99.90
45735;DHT22;31446;49.632;8.328;2023-04-12T13:11:40;13.00;99.90
45735;DHT22;31446;49.632;8.328;2023-04-12T13:26:46;12.90;99.90
45735;DHT22;31446;49.632;8.328;2023-04-12T13:41:53;13.20;99.90
45735;DHT22;31446;49.632;8.328;2023-04-12T13:57:00;12.50;99.90
45735;DHT22;31446;49.632;8.328;2023-04-12T14:12:06;12.90;99.90
45735;DHT22;31446;49.632;8.328;2023-04-12T14:27:13;12.50;99.90
45735;DHT22;31446;49.632;8.328;2023-04-12T14:42:19;12.70;99.90
45735;DHT22;31446;49.632;8.328;2023-04-12T14:57:25;12.80;99.90
45735;DHT22;31446;49.632;8.328;2023-04-12T15:12:32;12.90;99.90
45735;DHT22;31446;49.632;8.328;2023-04-12T15:27:39;13.70;99.90
45735;DHT22;31446;49.632;8.328;2023-04-12T15:42:46;14.10;99.90
45735;DHT22;31446;49.632;8.328;2023-04-12T15:57:52;14.60;99.90
45735;DHT22;31446;49.632;8.328;2023-04-12T16:12:59;14.80;99.90
45735;DHT22;31446;49.632;8.328;2023-04-12T16:28:07;14.00;99.90
45735;DHT22;31446;49.632;8.328;2023-04-12T16:43:14;13.90;99.90
45735;DHT22;31446;49.632;8.328;2023-04-12T16:58:20;13.60;99.90
45735;DHT22;31446;49.632;8.328;2023-04-12T17:13:26;13.60;99.90
45735;DHT22;31446;49.632;8.328;2023-04-12T17:28:33;14.80;99.90
45735;DHT22;31446;49.632;8.328;2023-04-12T17:43:41;15.20;99.90
45735;DHT22;31446;49.632;8.328;2023-04-12T17:58:49;14.00;99.90
45735;DHT22;31446;49.632;8.328;2023-04-12T18:13:55;12.60;99.90
45735;DHT22;31446;49.632;8.328;2023-04-12T18:29:01;11.80;99.90
45735;DHT22;31446;49.632;8.328;2023-04-12T18:44:08;11.00;99.90
45735;DHT22;31446;49.632;8.328;2023-04-12T18:59:15;10.90;99.90
45735;DHT22;31446;49.632;8.328;2023-04-12T19:14:22;8.90;99.90
45735;DHT22;31446;49.632;8.328;2023-04-12T19:29:32;8.20;99.90
45735;DHT22;31446;49.632;8.328;2023-04-12T19:44:39;7.90;99.90
45735;DHT22;31446;49.632;8.328;2023-04-12T19:59:58;7.70;99.90
45735;DHT22;31446;49.632;8.328;2023-04-12T20:15:47;7.40;99.90
45735;DHT22;31446;49.632;8.328;2023-04-12T20:46:58;7.20;99.90
45735;DHT22;31446;49.632;8.328;2023-04-12T21:02:05;7.20;99.90
45735;DHT22;31446;49.632;8.328;2023-04-12T21:17:12;7.50;99.90
45735;DHT22;31446;49.632;8.328;2023-04-12T21:32:19;7.60;99.90
45735;DHT22;31446;49.632;8.328;2023-04-12T21:47:25;8.10;99.90
45735;DHT22;31446;49.632;8.328;2023-04-12T22:02:32;8.10;99.90
45735;DHT22;31446;49.632;8.328;2023-04-12T22:17:38;8.20;99.90
45735;DHT22;31446;49.632;8.328;2023-04-12T22:32:44;8.10;99.90
45735;DHT22;31446;49.632;8.328;2023-04-12T22:47:51;8.30;99.90
45735;DHT22;31446;49.632;8.328;2023-04-12T23:02:57;8.10;99.90
45735;DHT22;31446;49.632;8.328;2023-04-12T23:18:04;7.60;99.90
45735;DHT22;31446;49.632;8.328;2023-04-12T23:33:11;7.20;99.90
45735;DHT22;31446;49.632;8.328;2023-04-12T23:48:20;6.80;99.90
